createdAt,value
2017-02-14T00:02:50.305Z,1023.51
2017-02-14T00:07:46.539Z,1023.52
2017-02-14T00:12:43.436Z,1023.49
2017-02-14T00:17:39.519Z,1023.39
2017-02-14T00:22:36.466Z,1023.36
2017-02-14T00:27:33.499Z,1023.50
2017-02-14T00:32:30.226Z,1023.42
2017-02-14T00:37:26.609Z,1023.44
2017-02-14T00:42:22.576Z,1023.37
2017-02-14T00:47:18.828Z,1023.46
2017-02-14T00:52:15.215Z,1023.48
2017-02-14T00:57:11.102Z,1023.43
2017-02-14T01:02:07.625Z,1023.40
2017-02-14T01:07:03.704Z,1023.40
2017-02-14T01:11:59.976Z,1023.42
2017-02-14T01:16:56.677Z,1023.41
2017-02-14T01:21:53.570Z,1023.48
2017-02-14T01:26:49.920Z,1023.56
2017-02-14T01:31:46.271Z,1023.42
2017-02-14T01:36:42.550Z,1023.33
2017-02-14T01:41:38.907Z,1023.33
2017-02-14T01:46:35.166Z,1023.19
2017-02-14T01:51:31.227Z,1023.21
2017-02-14T01:56:27.708Z,1023.21
2017-02-14T02:01:24.066Z,1023.06
2017-02-14T02:06:20.210Z,1022.99
2017-02-14T02:11:16.377Z,1022.96
2017-02-14T02:16:14.961Z,1023.02
2017-02-14T02:21:10.884Z,1022.92
2017-02-14T02:26:07.103Z,1022.82
2017-02-14T02:31:03.403Z,1022.79
2017-02-14T02:35:59.410Z,1022.62
2017-02-14T02:40:56.458Z,1022.57
2017-02-14T02:45:52.850Z,1022.61
2017-02-14T02:50:49.243Z,1022.54
2017-02-14T02:55:45.642Z,1022.43
2017-02-14T03:00:42.190Z,1022.50
2017-02-14T03:05:38.515Z,1022.53
2017-02-14T03:10:35.038Z,1022.34
2017-02-14T03:15:31.438Z,1022.25
2017-02-14T03:20:28.446Z,1022.31
2017-02-14T03:25:25.015Z,1022.30
2017-02-14T03:30:21.421Z,1022.34
2017-02-14T03:35:17.693Z,1022.35
2017-02-14T03:40:13.776Z,1022.26
2017-02-14T03:45:10.273Z,1022.40
2017-02-14T03:50:06.501Z,1022.30
2017-02-14T03:55:03.134Z,1022.37
2017-02-14T03:59:59.815Z,1022.23
2017-02-14T04:04:56.792Z,1022.18
2017-02-14T04:09:53.152Z,1022.17
2017-02-14T04:14:49.556Z,1022.28
2017-02-14T04:19:45.825Z,1022.30
2017-02-14T04:24:42.229Z,1022.29
2017-02-14T04:29:39.110Z,1022.39
2017-02-14T04:34:36.151Z,1022.44
2017-02-14T04:39:32.480Z,1022.46
2017-02-14T04:44:28.868Z,1022.63
2017-02-14T04:49:25.834Z,1022.62
2017-02-14T04:54:22.067Z,1022.54
2017-02-14T04:59:18.520Z,1022.46
2017-02-14T05:04:14.365Z,1022.30
2017-02-14T05:09:10.788Z,1022.05
2017-02-14T05:14:07.084Z,1022.04
2017-02-14T05:19:03.345Z,1022.12
2017-02-14T05:23:59.700Z,1022.15
2017-02-14T05:28:56.023Z,1022.22
2017-02-14T05:33:52.447Z,1022.19
2017-02-14T05:38:48.785Z,1022.17
2017-02-14T05:43:45.879Z,1022.18
2017-02-14T05:48:42.128Z,1022.27
2017-02-14T05:53:38.240Z,1022.35
2017-02-14T05:58:34.651Z,1022.32
2017-02-14T06:03:31.006Z,1022.37
2017-02-14T06:08:27.352Z,1022.22
2017-02-14T06:13:23.577Z,1022.28
2017-02-14T06:18:20.197Z,1022.36
2017-02-14T06:23:16.516Z,1022.38
2017-02-14T06:28:12.837Z,1022.53
2017-02-14T06:33:09.093Z,1022.60
2017-02-14T06:38:05.068Z,1022.62
2017-02-14T06:43:01.086Z,1022.62
2017-02-14T06:47:57.250Z,1022.58
2017-02-14T06:52:53.777Z,1022.56
2017-02-14T06:57:50.330Z,1022.57
2017-02-14T07:02:46.630Z,1022.58
2017-02-14T07:07:43.726Z,1022.54
2017-02-14T07:12:40.017Z,1022.50
2017-02-14T07:17:36.191Z,1022.59
2017-02-14T07:22:32.476Z,1022.67
2017-02-14T07:27:28.742Z,1022.59
2017-02-14T07:32:25.198Z,1022.73
2017-02-14T07:37:21.450Z,1022.81
2017-02-14T07:42:17.941Z,1022.83
2017-02-14T07:47:14.277Z,1022.92
2017-02-14T07:52:11.384Z,1022.87
2017-02-14T07:57:08.680Z,1023.00
2017-02-14T08:02:05.108Z,1023.06
2017-02-14T08:07:01.557Z,1023.03
2017-02-14T08:11:58.032Z,1023.17
2017-02-14T08:16:54.755Z,1023.17
2017-02-14T08:21:51.476Z,1023.24
2017-02-14T08:26:47.839Z,1023.34
2017-02-14T08:31:44.420Z,1023.33
2017-02-14T08:36:41.041Z,1023.30
2017-02-14T08:41:37.616Z,1023.23
2017-02-14T08:46:34.148Z,1023.34
2017-02-14T08:51:30.577Z,1023.33
2017-02-14T08:56:27.220Z,1023.21
2017-02-14T09:01:23.991Z,1023.31
2017-02-14T09:06:20.521Z,1023.45
2017-02-14T09:11:17.167Z,1023.42
2017-02-14T09:16:13.759Z,1023.38
2017-02-14T09:21:10.212Z,1023.34
2017-02-14T09:26:06.610Z,1023.39
2017-02-14T09:31:02.563Z,1023.50
2017-02-14T09:35:59.214Z,1023.53
2017-02-14T09:40:55.822Z,1023.56
2017-02-14T09:45:53.383Z,1023.65
2017-02-14T09:50:50.326Z,1023.63
2017-02-14T09:55:47.265Z,1023.68
2017-02-14T10:00:43.825Z,1023.66
2017-02-14T10:05:40.375Z,1023.64
2017-02-14T10:10:37.082Z,1023.70
2017-02-14T10:15:33.595Z,1023.84
2017-02-14T10:20:30.379Z,1023.95
2017-02-14T10:25:28.141Z,1023.94
2017-02-14T10:30:25.252Z,1023.86
2017-02-14T10:35:23.137Z,1023.97
2017-02-14T10:40:19.131Z,1024.01
2017-02-14T10:45:16.087Z,1024.01
2017-02-14T10:50:12.608Z,1023.96
2017-02-14T10:55:10.376Z,1023.96
2017-02-14T11:00:06.670Z,1023.96
2017-02-14T11:05:03.648Z,1023.92
2017-02-14T11:10:00.206Z,1023.86
2017-02-14T11:14:56.924Z,1023.93
2017-02-14T11:19:53.823Z,1023.94
2017-02-14T11:24:49.948Z,1023.85
2017-02-14T11:29:46.436Z,1023.92
2017-02-14T11:34:43.780Z,1023.87
2017-02-14T11:39:40.673Z,1023.77
2017-02-14T11:44:37.412Z,1023.73
2017-02-14T11:49:34.153Z,1023.71
2017-02-14T11:54:30.822Z,1023.67
2017-02-14T11:59:27.274Z,1023.72
2017-02-14T12:04:23.954Z,1023.74
2017-02-14T12:09:20.579Z,1023.74
2017-02-14T12:14:17.149Z,1023.77
2017-02-14T12:19:13.444Z,1023.82
2017-02-14T12:24:10.346Z,1023.88
2017-02-14T12:29:07.358Z,1023.70
2017-02-14T12:34:03.527Z,1023.73
2017-02-14T12:39:00.077Z,1023.69
2017-02-14T12:43:56.521Z,1023.66
2017-02-14T12:48:52.967Z,1023.68
2017-02-14T12:53:50.435Z,1023.67
2017-02-14T12:58:46.698Z,1023.65
2017-02-14T13:03:43.431Z,1023.56
2017-02-14T13:08:39.964Z,1023.62
2017-02-14T13:13:36.529Z,1023.66
2017-02-14T13:18:32.857Z,1023.70
2017-02-14T13:23:29.224Z,1023.53
2017-02-14T13:28:25.854Z,1023.61
2017-02-14T13:33:22.464Z,1023.63
2017-02-14T13:38:19.345Z,1023.61
2017-02-14T13:43:15.968Z,1023.53
2017-02-14T13:48:11.930Z,1023.56
2017-02-14T13:53:08.935Z,1023.56
2017-02-14T13:58:05.608Z,1023.59
2017-02-14T14:03:02.365Z,1023.64
2017-02-14T14:07:59.018Z,1023.69
2017-02-14T14:12:59.043Z,1023.69
2017-02-14T14:17:55.115Z,1023.67
2017-02-14T14:22:51.678Z,1023.66
2017-02-14T14:27:48.419Z,1023.65
2017-02-14T14:32:45.101Z,1023.64
2017-02-14T14:37:41.837Z,1023.68
2017-02-14T14:42:38.557Z,1023.69
2017-02-14T14:47:35.117Z,1023.64
2017-02-14T14:52:31.812Z,1023.70
2017-02-14T14:57:28.476Z,1023.67
2017-02-14T15:02:25.672Z,1023.62
2017-02-14T15:07:22.366Z,1023.58
2017-02-14T15:12:18.436Z,1023.59
2017-02-14T15:17:14.855Z,1023.57
2017-02-14T15:22:11.115Z,1023.60
2017-02-14T15:27:07.578Z,1023.66
2017-02-14T15:32:03.925Z,1023.64
2017-02-14T15:37:00.375Z,1023.64
2017-02-14T15:41:58.490Z,1023.66
2017-02-14T15:46:55.118Z,1023.64
2017-02-14T15:51:51.922Z,1023.64
2017-02-14T15:56:48.228Z,1023.64
2017-02-14T16:01:44.230Z,1023.70
2017-02-14T16:06:40.439Z,1023.67
2017-02-14T16:11:36.903Z,1023.77
2017-02-14T16:16:32.912Z,1023.79
2017-02-14T16:21:29.348Z,1023.82
2017-02-14T16:26:25.752Z,1023.74
2017-02-14T16:31:22.369Z,1023.79
2017-02-14T16:36:18.533Z,1023.76
2017-02-14T16:41:15.036Z,1023.80
2017-02-14T16:46:11.582Z,1023.88
2017-02-14T16:51:07.807Z,1024.05
2017-02-14T16:56:04.170Z,1023.86
2017-02-14T17:01:00.506Z,1023.94
2017-02-14T17:05:56.814Z,1023.88
2017-02-14T17:10:53.273Z,1023.82
2017-02-14T17:15:49.846Z,1023.96
2017-02-14T17:20:46.326Z,1024.10
2017-02-14T17:25:42.867Z,1024.19
2017-02-14T17:30:39.126Z,1024.18
2017-02-14T17:35:35.668Z,1024.20
2017-02-14T17:40:31.799Z,1024.23
2017-02-14T17:45:28.010Z,1024.28
2017-02-14T17:50:24.506Z,1024.32
2017-02-14T17:55:20.468Z,1024.34
2017-02-14T18:00:16.988Z,1024.39
2017-02-14T18:05:13.246Z,1024.40
2017-02-14T18:10:10.164Z,1024.40
2017-02-14T18:15:06.505Z,1024.43
2017-02-14T18:20:02.825Z,1024.47
2017-02-14T18:25:00.113Z,1024.43
2017-02-14T18:29:56.446Z,1024.50
2017-02-14T18:34:52.957Z,1024.36
2017-02-14T18:39:49.095Z,1024.42
2017-02-14T18:44:46.815Z,1024.51
2017-02-14T18:49:42.886Z,1024.56
2017-02-14T18:54:39.203Z,1024.54
2017-02-14T18:59:35.763Z,1024.60
2017-02-14T19:04:32.386Z,1024.54
2017-02-14T19:09:28.700Z,1024.50
2017-02-14T19:14:25.183Z,1024.55
2017-02-14T19:19:21.295Z,1024.53
2017-02-14T19:24:20.604Z,1024.55
2017-02-14T19:29:16.062Z,1024.56
2017-02-14T19:34:12.598Z,1024.66
2017-02-14T19:39:09.149Z,1024.65
2017-02-14T19:44:05.291Z,1024.77
2017-02-14T19:49:01.602Z,1024.79
2017-02-14T19:53:59.204Z,1024.83
2017-02-14T19:58:55.249Z,1024.85
2017-02-14T20:03:51.481Z,1024.88
2017-02-14T20:08:47.676Z,1024.98
2017-02-14T20:13:43.971Z,1025.02
2017-02-14T20:18:40.540Z,1024.96
2017-02-14T20:23:37.560Z,1025.03
2017-02-14T20:28:33.936Z,1025.03
2017-02-14T20:33:30.499Z,1025.02
2017-02-14T20:38:27.660Z,1024.96
2017-02-14T20:43:23.950Z,1024.98
2017-02-14T20:48:20.285Z,1025.02
2017-02-14T20:53:16.565Z,1025.10
2017-02-14T20:58:13.907Z,1024.99
2017-02-14T21:03:10.399Z,1025.04
2017-02-14T21:08:06.841Z,1024.99
2017-02-14T21:13:03.222Z,1025.06
2017-02-14T21:17:59.638Z,1025.01
2017-02-14T21:22:57.103Z,1025.02
2017-02-14T21:27:53.490Z,1025.00
2017-02-14T21:32:53.064Z,1025.01
2017-02-14T21:37:49.238Z,1024.89
2017-02-14T21:42:45.631Z,1024.79
2017-02-14T21:47:41.904Z,1024.89
2017-02-14T21:52:38.317Z,1024.86
2017-02-14T21:57:34.629Z,1024.86
2017-02-14T22:02:31.051Z,1024.87
2017-02-14T22:07:27.436Z,1024.77
2017-02-14T22:12:24.714Z,1024.80
2017-02-14T22:17:20.752Z,1024.86
2017-02-14T22:22:17.842Z,1024.85
2017-02-14T22:27:13.772Z,1024.87
2017-02-14T22:32:10.866Z,1024.92
2017-02-14T22:37:07.014Z,1024.99
2017-02-14T22:42:03.443Z,1024.92
2017-02-14T22:46:59.609Z,1025.08
2017-02-14T22:51:56.267Z,1025.16
2017-02-14T22:56:52.707Z,1025.24
2017-02-14T23:01:48.986Z,1025.33
2017-02-14T23:06:45.426Z,1025.33
2017-02-14T23:11:41.504Z,1025.33
2017-02-14T23:16:37.845Z,1025.40
2017-02-14T23:21:34.305Z,1025.43
2017-02-14T23:26:30.842Z,1025.40
2017-02-14T23:31:27.262Z,1025.57
2017-02-14T23:36:24.213Z,1025.50
2017-02-14T23:41:20.460Z,1025.42
2017-02-14T23:46:16.886Z,1025.65
2017-02-14T23:51:13.001Z,1025.55
2017-02-14T23:56:09.607Z,1025.59
